sensor_id;sensor_type;location;lat;lon;timestamp;P1;durP1;ratioP1;P2;durP2;ratioP2
75456;SDS011;64036;48.266;14.192;2022-10-15T00:00:40;9.00;;;5.90;;
75456;SDS011;64036;48.266;14.192;2022-10-15T00:03:06;7.70;;;5.40;;
75456;SDS011;64036;48.266;14.192;2022-10-15T00:05:31;9.40;;;4.70;;
75456;SDS011;64036;48.266;14.192;2022-10-15T00:07:57;9.70;;;5.40;;
75456;SDS011;64036;48.266;14.192;2022-10-15T00:10:23;8.00;;;5.20;;
75456;SDS011;64036;48.266;14.192;2022-10-15T00:12:48;10.00;;;6.40;;
75456;SDS011;64036;48.266;14.192;2022-10-15T00:15:14;9.70;;;5.00;;
75456;SDS011;64036;48.266;14.192;2022-10-15T00:17:41;8.70;;;5.70;;
75456;SDS011;64036;48.266;14.192;2022-10-15T00:20:08;8.20;;;5.50;;
75456;SDS011;64036;48.266;14.192;2022-10-15T00:22:35;8.70;;;5.40;;
75456;SDS011;64036;48.266;14.192;2022-10-15T00:25:01;8.60;;;6.10;;
75456;SDS011;64036;48.266;14.192;2022-10-15T00:27:27;8.80;;;5.70;;
75456;SDS011;64036;48.266;14.192;2022-10-15T00:29:53;6.60;;;4.70;;
75456;SDS011;64036;48.266;14.192;2022-10-15T00:32:18;8.00;;;5.80;;
75456;SDS011;64036;48.266;14.192;2022-10-15T00:34:45;8.00;;;5.80;;
75456;SDS011;64036;48.266;14.192;2022-10-15T00:37:10;9.60;;;5.70;;
75456;SDS011;64036;48.266;14.192;2022-10-15T00:39:36;7.40;;;5.40;;
75456;SDS011;64036;48.266;14.192;2022-10-15T00:42:02;8.00;;;5.80;;
75456;SDS011;64036;48.266;14.192;2022-10-15T00:47:13;8.00;;;5.30;;
75456;SDS011;64036;48.266;14.192;2022-10-15T00:49:42;7.10;;;4.80;;
75456;SDS011;64036;48.266;14.192;2022-10-15T00:52:15;9.20;;;6.00;;
75456;SDS011;64036;48.266;14.192;2022-10-15T00:54:47;7.60;;;4.60;;
75456;SDS011;64036;48.266;14.192;2022-10-15T00:57:15;8.10;;;5.20;;
75456;SDS011;64036;48.266;14.192;2022-10-15T00:59:44;8.70;;;5.30;;
75456;SDS011;64036;48.266;14.192;2022-10-15T01:02:14;7.90;;;5.50;;
75456;SDS011;64036;48.266;14.192;2022-10-15T01:04:42;7.20;;;4.50;;
75456;SDS011;64036;48.266;14.192;2022-10-15T01:07:08;8.80;;;5.40;;
75456;SDS011;64036;48.266;14.192;2022-10-15T01:09:34;8.10;;;5.50;;
75456;SDS011;64036;48.266;14.192;2022-10-15T01:12:00;9.10;;;5.90;;
75456;SDS011;64036;48.266;14.192;2022-10-15T01:17:20;7.80;;;5.30;;
75456;SDS011;64036;48.266;14.192;2022-10-15T01:31:37;9.00;;;5.50;;
75456;SDS011;64036;48.266;14.192;2022-10-15T01:34:21;8.00;;;5.40;;
75456;SDS011;64036;48.266;14.192;2022-10-15T01:37:12;7.70;;;4.90;;
75456;SDS011;64036;48.266;14.192;2022-10-15T01:39:49;7.30;;;5.20;;
75456;SDS011;64036;48.266;14.192;2022-10-15T01:42:27;7.50;;;4.60;;
75456;SDS011;64036;48.266;14.192;2022-10-15T01:44:58;8.50;;;5.00;;
75456;SDS011;64036;48.266;14.192;2022-10-15T01:47:35;7.10;;;4.80;;
75456;SDS011;64036;48.266;14.192;2022-10-15T01:50:05;7.30;;;3.90;;
75456;SDS011;64036;48.266;14.192;2022-10-15T01:52:35;9.50;;;5.20;;
75456;SDS011;64036;48.266;14.192;2022-10-15T01:55:04;8.80;;;4.80;;
75456;SDS011;64036;48.266;14.192;2022-10-15T01:57:32;10.10;;;5.70;;
75456;SDS011;64036;48.266;14.192;2022-10-15T02:00:00;10.80;;;5.20;;
75456;SDS011;64036;48.266;14.192;2022-10-15T02:02:26;10.50;;;5.40;;
75456;SDS011;64036;48.266;14.192;2022-10-15T02:04:52;7.50;;;4.80;;
75456;SDS011;64036;48.266;14.192;2022-10-15T02:19:34;5.80;;;3.60;;
75456;SDS011;64036;48.266;14.192;2022-10-15T02:22:09;6.00;;;3.80;;
75456;SDS011;64036;48.266;14.192;2022-10-15T02:24:57;10.10;;;4.60;;
75456;SDS011;64036;48.266;14.192;2022-10-15T02:27:29;10.90;;;5.70;;
75456;SDS011;64036;48.266;14.192;2022-10-15T02:29:58;7.80;;;4.90;;
75456;SDS011;64036;48.266;14.192;2022-10-15T02:34:55;8.20;;;5.70;;
75456;SDS011;64036;48.266;14.192;2022-10-15T02:37:23;9.40;;;5.50;;
75456;SDS011;64036;48.266;14.192;2022-10-15T02:39:50;7.50;;;4.40;;
75456;SDS011;64036;48.266;14.192;2022-10-15T02:42:16;10.90;;;5.40;;
75456;SDS011;64036;48.266;14.192;2022-10-15T02:44:42;8.60;;;5.70;;
75456;SDS011;64036;48.266;14.192;2022-10-15T02:47:08;9.70;;;6.00;;
75456;SDS011;64036;48.266;14.192;2022-10-15T02:49:34;10.20;;;6.20;;
75456;SDS011;64036;48.266;14.192;2022-10-15T02:52:00;9.00;;;5.50;;
75456;SDS011;64036;48.266;14.192;2022-10-15T02:54:25;8.70;;;5.80;;
75456;SDS011;64036;48.266;14.192;2022-10-15T02:56:51;8.90;;;5.50;;
75456;SDS011;64036;48.266;14.192;2022-10-15T02:59:16;11.10;;;5.50;;
75456;SDS011;64036;48.266;14.192;2022-10-15T03:01:44;10.20;;;4.80;;
75456;SDS011;64036;48.266;14.192;2022-10-15T03:04:09;8.40;;;5.50;;
75456;SDS011;64036;48.266;14.192;2022-10-15T03:06:35;9.40;;;5.40;;
75456;SDS011;64036;48.266;14.192;2022-10-15T03:09:01;10.40;;;5.50;;
75456;SDS011;64036;48.266;14.192;2022-10-15T03:11:26;9.00;;;6.00;;
75456;SDS011;64036;48.266;14.192;2022-10-15T03:13:52;7.90;;;5.50;;
75456;SDS011;64036;48.266;14.192;2022-10-15T03:16:18;13.30;;;6.10;;
75456;SDS011;64036;48.266;14.192;2022-10-15T03:18:43;8.20;;;5.50;;
75456;SDS011;64036;48.266;14.192;2022-10-15T03:21:09;7.00;;;4.60;;
75456;SDS011;64036;48.266;14.192;2022-10-15T03:23:35;8.90;;;4.70;;
75456;SDS011;64036;48.266;14.192;2022-10-15T03:26:00;8.90;;;5.30;;
75456;SDS011;64036;48.266;14.192;2022-10-15T03:28:26;9.80;;;5.40;;
75456;SDS011;64036;48.266;14.192;2022-10-15T03:30:51;8.80;;;4.80;;
75456;SDS011;64036;48.266;14.192;2022-10-15T03:33:17;7.40;;;5.00;;
75456;SDS011;64036;48.266;14.192;2022-10-15T03:35:44;10.00;;;4.90;;
75456;SDS011;64036;48.266;14.192;2022-10-15T03:38:10;8.90;;;5.20;;
75456;SDS011;64036;48.266;14.192;2022-10-15T03:40:35;9.80;;;5.10;;
75456;SDS011;64036;48.266;14.192;2022-10-15T03:43:01;7.20;;;4.60;;
75456;SDS011;64036;48.266;14.192;2022-10-15T03:45:27;9.50;;;4.50;;
75456;SDS011;64036;48.266;14.192;2022-10-15T03:47:52;8.10;;;5.30;;
75456;SDS011;64036;48.266;14.192;2022-10-15T03:50:18;11.10;;;5.40;;
75456;SDS011;64036;48.266;14.192;2022-10-15T03:52:44;7.40;;;4.60;;
75456;SDS011;64036;48.266;14.192;2022-10-15T03:55:10;11.50;;;5.00;;
75456;SDS011;64036;48.266;14.192;2022-10-15T03:57:36;8.10;;;4.80;;
75456;SDS011;64036;48.266;14.192;2022-10-15T04:00:04;12.80;;;5.30;;
75456;SDS011;64036;48.266;14.192;2022-10-15T04:02:31;6.70;;;4.50;;
75456;SDS011;64036;48.266;14.192;2022-10-15T04:04:57;7.90;;;4.60;;
75456;SDS011;64036;48.266;14.192;2022-10-15T04:07:23;7.00;;;4.50;;
75456;SDS011;64036;48.266;14.192;2022-10-15T04:09:49;8.60;;;4.80;;
75456;SDS011;64036;48.266;14.192;2022-10-15T04:12:15;6.90;;;4.80;;
75456;SDS011;64036;48.266;14.192;2022-10-15T04:14:41;8.10;;;4.70;;
75456;SDS011;64036;48.266;14.192;2022-10-15T04:17:07;8.70;;;4.40;;
75456;SDS011;64036;48.266;14.192;2022-10-15T04:19:33;7.20;;;4.40;;
75456;SDS011;64036;48.266;14.192;2022-10-15T04:21:59;8.80;;;4.20;;
75456;SDS011;64036;48.266;14.192;2022-10-15T04:24:24;8.90;;;4.90;;
75456;SDS011;64036;48.266;14.192;2022-10-15T04:26:50;7.60;;;4.70;;
75456;SDS011;64036;48.266;14.192;2022-10-15T04:29:16;7.70;;;4.50;;
75456;SDS011;64036;48.266;14.192;2022-10-15T04:31:42;6.80;;;4.40;;
75456;SDS011;64036;48.266;14.192;2022-10-15T04:34:08;7.50;;;4.60;;
75456;SDS011;64036;48.266;14.192;2022-10-15T04:36:34;7.50;;;4.80;;
75456;SDS011;64036;48.266;14.192;2022-10-15T04:39:00;6.70;;;4.50;;
75456;SDS011;64036;48.266;14.192;2022-10-15T04:41:26;7.10;;;4.60;;
75456;SDS011;64036;48.266;14.192;2022-10-15T04:43:52;7.00;;;4.30;;
75456;SDS011;64036;48.266;14.192;2022-10-15T04:46:18;9.70;;;4.60;;
75456;SDS011;64036;48.266;14.192;2022-10-15T04:48:46;6.70;;;4.40;;
75456;SDS011;64036;48.266;14.192;2022-10-15T04:51:18;7.80;;;5.30;;
75456;SDS011;64036;48.266;14.192;2022-10-15T04:53:44;8.60;;;5.00;;
75456;SDS011;64036;48.266;14.192;2022-10-15T04:56:13;9.60;;;5.80;;
75456;SDS011;64036;48.266;14.192;2022-10-15T04:58:41;7.30;;;5.40;;
75456;SDS011;64036;48.266;14.192;2022-10-15T05:01:10;10.00;;;6.00;;
75456;SDS011;64036;48.266;14.192;2022-10-15T05:03:37;11.40;;;6.30;;
75456;SDS011;64036;48.266;14.192;2022-10-15T05:06:08;12.10;;;6.70;;
75456;SDS011;64036;48.266;14.192;2022-10-15T05:08:36;12.10;;;7.20;;
75456;SDS011;64036;48.266;14.192;2022-10-15T05:11:04;11.80;;;7.50;;
75456;SDS011;64036;48.266;14.192;2022-10-15T05:13:32;10.70;;;7.00;;
75456;SDS011;64036;48.266;14.192;2022-10-15T05:16:19;10.70;;;7.50;;
75456;SDS011;64036;48.266;14.192;2022-10-15T05:18:49;11.10;;;7.30;;
75456;SDS011;64036;48.266;14.192;2022-10-15T05:21:17;10.40;;;7.20;;
75456;SDS011;64036;48.266;14.192;2022-10-15T05:23:43;10.10;;;7.40;;
75456;SDS011;64036;48.266;14.192;2022-10-15T05:26:16;10.50;;;6.90;;
75456;SDS011;64036;48.266;14.192;2022-10-15T05:28:47;11.00;;;7.60;;
75456;SDS011;64036;48.266;14.192;2022-10-15T05:31:18;13.00;;;7.00;;
75456;SDS011;64036;48.266;14.192;2022-10-15T05:33:51;9.20;;;6.30;;
75456;SDS011;64036;48.266;14.192;2022-10-15T05:38:54;11.00;;;6.90;;
75456;SDS011;64036;48.266;14.192;2022-10-15T05:41:25;10.90;;;6.90;;
75456;SDS011;64036;48.266;14.192;2022-10-15T05:43:53;9.10;;;4.90;;
75456;SDS011;64036;48.266;14.192;2022-10-15T05:46:20;8.00;;;5.40;;
75456;SDS011;64036;48.266;14.192;2022-10-15T05:48:54;10.80;;;5.40;;
75456;SDS011;64036;48.266;14.192;2022-10-15T05:51:21;8.10;;;5.20;;
75456;SDS011;64036;48.266;14.192;2022-10-15T05:53:51;8.00;;;5.30;;
75456;SDS011;64036;48.266;14.192;2022-10-15T05:56:17;6.30;;;3.90;;
75456;SDS011;64036;48.266;14.192;2022-10-15T05:58:43;9.70;;;6.00;;
75456;SDS011;64036;48.266;14.192;2022-10-15T06:01:10;7.70;;;4.10;;
75456;SDS011;64036;48.266;14.192;2022-10-15T06:03:38;6.30;;;4.40;;
75456;SDS011;64036;48.266;14.192;2022-10-15T06:06:04;8.10;;;5.20;;
75456;SDS011;64036;48.266;14.192;2022-10-15T06:08:41;8.10;;;4.70;;
75456;SDS011;64036;48.266;14.192;2022-10-15T06:11:07;9.00;;;5.10;;
75456;SDS011;64036;48.266;14.192;2022-10-15T06:13:33;8.10;;;4.80;;
75456;SDS011;64036;48.266;14.192;2022-10-15T06:15:58;9.00;;;6.30;;
75456;SDS011;64036;48.266;14.192;2022-10-15T06:18:24;6.80;;;4.20;;
75456;SDS011;64036;48.266;14.192;2022-10-15T06:20:51;8.10;;;5.00;;
75456;SDS011;64036;48.266;14.192;2022-10-15T06:23:17;6.30;;;4.50;;
75456;SDS011;64036;48.266;14.192;2022-10-15T06:25:43;6.30;;;3.80;;
75456;SDS011;64036;48.266;14.192;2022-10-15T06:28:09;7.80;;;5.00;;
75456;SDS011;64036;48.266;14.192;2022-10-15T06:30:34;9.10;;;5.10;;
75456;SDS011;64036;48.266;14.192;2022-10-15T06:33:01;8.10;;;4.60;;
75456;SDS011;64036;48.266;14.192;2022-10-15T06:35:27;7.70;;;5.00;;
75456;SDS011;64036;48.266;14.192;2022-10-15T06:37:59;8.40;;;5.10;;
75456;SDS011;64036;48.266;14.192;2022-10-15T06:40:25;9.10;;;5.70;;
75456;SDS011;64036;48.266;14.192;2022-10-15T06:42:51;5.80;;;4.00;;
75456;SDS011;64036;48.266;14.192;2022-10-15T06:45:16;8.10;;;5.30;;
75456;SDS011;64036;48.266;14.192;2022-10-15T06:47:42;9.80;;;5.40;;
75456;SDS011;64036;48.266;14.192;2022-10-15T06:50:08;8.70;;;5.70;;
75456;SDS011;64036;48.266;14.192;2022-10-15T06:52:34;7.90;;;5.50;;
75456;SDS011;64036;48.266;14.192;2022-10-15T06:54:59;8.60;;;6.50;;
75456;SDS011;64036;48.266;14.192;2022-10-15T06:57:28;9.40;;;6.60;;
75456;SDS011;64036;48.266;14.192;2022-10-15T06:59:54;11.60;;;7.40;;
75456;SDS011;64036;48.266;14.192;2022-10-15T07:02:20;11.80;;;6.90;;
75456;SDS011;64036;48.266;14.192;2022-10-15T07:04:46;10.20;;;7.40;;
75456;SDS011;64036;48.266;14.192;2022-10-15T07:07:12;9.10;;;6.20;;
75456;SDS011;64036;48.266;14.192;2022-10-15T07:09:37;9.30;;;5.30;;
75456;SDS011;64036;48.266;14.192;2022-10-15T07:12:03;12.10;;;6.80;;
75456;SDS011;64036;48.266;14.192;2022-10-15T07:14:29;11.40;;;7.30;;
75456;SDS011;64036;48.266;14.192;2022-10-15T07:16:55;11.50;;;5.30;;
75456;SDS011;64036;48.266;14.192;2022-10-15T07:19:21;12.90;;;6.20;;
75456;SDS011;64036;48.266;14.192;2022-10-15T07:21:47;9.30;;;5.70;;
75456;SDS011;64036;48.266;14.192;2022-10-15T07:24:12;8.80;;;5.30;;
75456;SDS011;64036;48.266;14.192;2022-10-15T07:26:38;10.00;;;5.00;;
75456;SDS011;64036;48.266;14.192;2022-10-15T07:29:03;11.30;;;6.50;;
75456;SDS011;64036;48.266;14.192;2022-10-15T07:31:29;9.80;;;6.60;;
75456;SDS011;64036;48.266;14.192;2022-10-15T07:33:55;9.40;;;5.80;;
75456;SDS011;64036;48.266;14.192;2022-10-15T07:36:21;10.10;;;6.80;;
75456;SDS011;64036;48.266;14.192;2022-10-15T07:38:47;9.90;;;6.00;;
75456;SDS011;64036;48.266;14.192;2022-10-15T07:41:13;11.90;;;6.60;;
75456;SDS011;64036;48.266;14.192;2022-10-15T07:43:39;7.10;;;5.00;;
75456;SDS011;64036;48.266;14.192;2022-10-15T07:46:04;11.10;;;6.30;;
75456;SDS011;64036;48.266;14.192;2022-10-15T07:48:31;7.20;;;5.40;;
75456;SDS011;64036;48.266;14.192;2022-10-15T07:51:03;7.40;;;4.40;;
75456;SDS011;64036;48.266;14.192;2022-10-15T07:53:30;9.50;;;5.50;;
75456;SDS011;64036;48.266;14.192;2022-10-15T07:56:00;10.10;;;6.60;;
75456;SDS011;64036;48.266;14.192;2022-10-15T07:58:27;11.10;;;6.20;;
75456;SDS011;64036;48.266;14.192;2022-10-15T08:00:55;10.30;;;6.90;;
75456;SDS011;64036;48.266;14.192;2022-10-15T08:03:24;10.30;;;6.70;;
75456;SDS011;64036;48.266;14.192;2022-10-15T08:05:50;9.40;;;6.60;;
75456;SDS011;64036;48.266;14.192;2022-10-15T08:08:18;9.50;;;5.70;;
75456;SDS011;64036;48.266;14.192;2022-10-15T08:10:45;10.20;;;6.40;;
75456;SDS011;64036;48.266;14.192;2022-10-15T08:13:11;8.20;;;5.40;;
75456;SDS011;64036;48.266;14.192;2022-10-15T08:15:41;7.90;;;5.80;;
75456;SDS011;64036;48.266;14.192;2022-10-15T08:18:07;10.50;;;6.00;;
75456;SDS011;64036;48.266;14.192;2022-10-15T08:20:35;8.50;;;6.00;;
75456;SDS011;64036;48.266;14.192;2022-10-15T08:23:01;8.30;;;5.90;;
75456;SDS011;64036;48.266;14.192;2022-10-15T08:25:28;8.50;;;5.50;;
75456;SDS011;64036;48.266;14.192;2022-10-15T08:27:54;7.80;;;5.20;;
75456;SDS011;64036;48.266;14.192;2022-10-15T08:30:20;8.60;;;5.60;;
75456;SDS011;64036;48.266;14.192;2022-10-15T08:32:46;9.30;;;6.10;;
75456;SDS011;64036;48.266;14.192;2022-10-15T08:35:12;11.70;;;8.00;;
75456;SDS011;64036;48.266;14.192;2022-10-15T08:37:37;10.70;;;7.10;;
75456;SDS011;64036;48.266;14.192;2022-10-15T08:40:04;9.70;;;6.50;;
75456;SDS011;64036;48.266;14.192;2022-10-15T08:42:35;9.30;;;6.70;;
75456;SDS011;64036;48.266;14.192;2022-10-15T08:45:06;9.10;;;5.60;;
75456;SDS011;64036;48.266;14.192;2022-10-15T08:50:11;11.60;;;7.30;;
75456;SDS011;64036;48.266;14.192;2022-10-15T08:52:46;8.10;;;4.80;;
75456;SDS011;64036;48.266;14.192;2022-10-15T08:55:16;8.70;;;5.70;;
75456;SDS011;64036;48.266;14.192;2022-10-15T08:57:54;9.40;;;5.80;;
75456;SDS011;64036;48.266;14.192;2022-10-15T09:00:31;8.20;;;5.30;;
75456;SDS011;64036;48.266;14.192;2022-10-15T09:03:04;11.80;;;7.70;;
75456;SDS011;64036;48.266;14.192;2022-10-15T09:06:13;9.20;;;5.20;;
75456;SDS011;64036;48.266;14.192;2022-10-15T09:11:22;11.90;;;6.60;;
75456;SDS011;64036;48.266;14.192;2022-10-15T09:14:15;12.70;;;7.20;;
75456;SDS011;64036;48.266;14.192;2022-10-15T09:16:47;10.60;;;6.80;;
75456;SDS011;64036;48.266;14.192;2022-10-15T09:19:21;10.50;;;7.30;;
75456;SDS011;64036;48.266;14.192;2022-10-15T09:21:50;9.10;;;6.40;;
75456;SDS011;64036;48.266;14.192;2022-10-15T09:24:21;9.50;;;6.10;;
75456;SDS011;64036;48.266;14.192;2022-10-15T09:33:00;9.00;;;5.00;;
75456;SDS011;64036;48.266;14.192;2022-10-15T09:35:34;10.60;;;6.50;;
75456;SDS011;64036;48.266;14.192;2022-10-15T09:38:46;9.50;;;6.00;;
75456;SDS011;64036;48.266;14.192;2022-10-15T09:43:51;9.90;;;6.60;;
75456;SDS011;64036;48.266;14.192;2022-10-15T09:46:17;9.40;;;5.90;;
75456;SDS011;64036;48.266;14.192;2022-10-15T09:49:00;10.40;;;6.20;;
75456;SDS011;64036;48.266;14.192;2022-10-15T09:51:37;9.40;;;6.40;;
75456;SDS011;64036;48.266;14.192;2022-10-15T09:54:17;9.30;;;5.80;;
75456;SDS011;64036;48.266;14.192;2022-10-15T09:56:56;10.00;;;6.60;;
75456;SDS011;64036;48.266;14.192;2022-10-15T09:59:23;9.90;;;6.10;;
75456;SDS011;64036;48.266;14.192;2022-10-15T10:04:31;9.10;;;6.50;;
75456;SDS011;64036;48.266;14.192;2022-10-15T10:07:04;9.80;;;7.00;;
75456;SDS011;64036;48.266;14.192;2022-10-15T10:09:48;11.20;;;7.80;;
75456;SDS011;64036;48.266;14.192;2022-10-15T10:12:21;10.20;;;6.20;;
75456;SDS011;64036;48.266;14.192;2022-10-15T10:14:58;10.30;;;6.40;;
75456;SDS011;64036;48.266;14.192;2022-10-15T10:17:25;8.30;;;5.20;;
75456;SDS011;64036;48.266;14.192;2022-10-15T10:23:20;9.60;;;5.80;;
75456;SDS011;64036;48.266;14.192;2022-10-15T10:25:47;8.20;;;5.40;;
75456;SDS011;64036;48.266;14.192;2022-10-15T10:28:18;9.10;;;5.90;;
75456;SDS011;64036;48.266;14.192;2022-10-15T10:30:58;8.70;;;5.40;;
75456;SDS011;64036;48.266;14.192;2022-10-15T10:35:58;7.00;;;4.60;;
75456;SDS011;64036;48.266;14.192;2022-10-15T10:38:32;8.60;;;5.60;;
75456;SDS011;64036;48.266;14.192;2022-10-15T10:41:03;7.80;;;5.00;;
75456;SDS011;64036;48.266;14.192;2022-10-15T10:43:37;9.30;;;6.20;;
75456;SDS011;64036;48.266;14.192;2022-10-15T10:46:15;7.00;;;4.30;;
75456;SDS011;64036;48.266;14.192;2022-10-15T10:48:52;7.50;;;5.40;;
75456;SDS011;64036;48.266;14.192;2022-10-15T10:51:25;7.10;;;5.00;;
75456;SDS011;64036;48.266;14.192;2022-10-15T10:54:03;9.00;;;6.60;;
75456;SDS011;64036;48.266;14.192;2022-10-15T10:56:39;6.10;;;3.80;;
75456;SDS011;64036;48.266;14.192;2022-10-15T10:59:14;6.30;;;4.00;;
75456;SDS011;64036;48.266;14.192;2022-10-15T11:01:43;8.50;;;6.20;;
75456;SDS011;64036;48.266;14.192;2022-10-15T11:04:27;10.90;;;6.50;;
75456;SDS011;64036;48.266;14.192;2022-10-15T11:07:04;10.00;;;6.00;;
75456;SDS011;64036;48.266;14.192;2022-10-15T11:09:48;8.00;;;4.90;;
75456;SDS011;64036;48.266;14.192;2022-10-15T11:18:28;8.60;;;6.10;;
75456;SDS011;64036;48.266;14.192;2022-10-15T11:24:10;7.40;;;4.90;;
75456;SDS011;64036;48.266;14.192;2022-10-15T11:35:28;8.20;;;5.60;;
75456;SDS011;64036;48.266;14.192;2022-10-15T11:38:10;5.70;;;4.00;;
75456;SDS011;64036;48.266;14.192;2022-10-15T11:44:06;6.70;;;4.70;;
75456;SDS011;64036;48.266;14.192;2022-10-15T11:55:03;5.40;;;3.60;;
75456;SDS011;64036;48.266;14.192;2022-10-15T11:57:34;5.80;;;3.90;;
75456;SDS011;64036;48.266;14.192;2022-10-15T12:00:06;5.10;;;2.90;;
75456;SDS011;64036;48.266;14.192;2022-10-15T12:02:44;5.80;;;3.20;;
75456;SDS011;64036;48.266;14.192;2022-10-15T12:05:18;5.70;;;3.80;;
75456;SDS011;64036;48.266;14.192;2022-10-15T12:18:55;4.60;;;3.10;;
75456;SDS011;64036;48.266;14.192;2022-10-15T12:21:32;4.90;;;2.60;;
75456;SDS011;64036;48.266;14.192;2022-10-15T12:23:58;3.60;;;2.30;;
75456;SDS011;64036;48.266;14.192;2022-10-15T12:26:30;5.30;;;3.00;;
75456;SDS011;64036;48.266;14.192;2022-10-15T12:28:58;3.90;;;2.40;;
75456;SDS011;64036;48.266;14.192;2022-10-15T12:31:46;4.00;;;2.40;;
75456;SDS011;64036;48.266;14.192;2022-10-15T12:34:29;3.40;;;2.30;;
75456;SDS011;64036;48.266;14.192;2022-10-15T12:37:12;3.60;;;2.50;;
75456;SDS011;64036;48.266;14.192;2022-10-15T12:39:42;3.50;;;2.10;;
75456;SDS011;64036;48.266;14.192;2022-10-15T12:42:37;3.60;;;2.10;;
75456;SDS011;64036;48.266;14.192;2022-10-15T12:45:07;3.10;;;2.00;;
75456;SDS011;64036;48.266;14.192;2022-10-15T12:47:53;2.80;;;2.10;;
75456;SDS011;64036;48.266;14.192;2022-10-15T12:50:28;3.00;;;2.30;;
75456;SDS011;64036;48.266;14.192;2022-10-15T12:53:01;3.60;;;2.40;;
75456;SDS011;64036;48.266;14.192;2022-10-15T12:55:36;4.40;;;2.70;;
75456;SDS011;64036;48.266;14.192;2022-10-15T12:58:29;3.70;;;2.40;;
75456;SDS011;64036;48.266;14.192;2022-10-15T13:01:04;2.70;;;2.00;;
75456;SDS011;64036;48.266;14.192;2022-10-15T13:06:14;11.60;;;3.00;;
75456;SDS011;64036;48.266;14.192;2022-10-15T13:08:50;4.10;;;2.30;;
75456;SDS011;64036;48.266;14.192;2022-10-15T13:11:40;4.80;;;2.10;;
75456;SDS011;64036;48.266;14.192;2022-10-15T13:16:48;3.10;;;2.10;;
75456;SDS011;64036;48.266;14.192;2022-10-15T13:19:20;2.70;;;1.80;;
75456;SDS011;64036;48.266;14.192;2022-10-15T13:22:02;2.60;;;1.50;;
75456;SDS011;64036;48.266;14.192;2022-10-15T13:24:40;1.90;;;1.60;;
75456;SDS011;64036;48.266;14.192;2022-10-15T13:30:03;2.30;;;1.70;;
75456;SDS011;64036;48.266;14.192;2022-10-15T13:32:46;1.70;;;1.60;;
75456;SDS011;64036;48.266;14.192;2022-10-15T13:35:21;3.70;;;2.20;;
75456;SDS011;64036;48.266;14.192;2022-10-15T13:37:48;3.30;;;2.10;;
75456;SDS011;64036;48.266;14.192;2022-10-15T13:40:19;2.60;;;1.80;;
75456;SDS011;64036;48.266;14.192;2022-10-15T13:43:01;3.20;;;1.80;;
75456;SDS011;64036;48.266;14.192;2022-10-15T13:45:38;2.00;;;1.50;;
75456;SDS011;64036;48.266;14.192;2022-10-15T13:48:09;2.30;;;1.50;;
75456;SDS011;64036;48.266;14.192;2022-10-15T13:50:36;2.20;;;1.40;;
75456;SDS011;64036;48.266;14.192;2022-10-15T13:55:36;2.50;;;1.70;;
75456;SDS011;64036;48.266;14.192;2022-10-15T13:58:27;2.00;;;1.70;;
75456;SDS011;64036;48.266;14.192;2022-10-15T14:01:08;2.90;;;1.90;;
75456;SDS011;64036;48.266;14.192;2022-10-15T14:03:36;2.50;;;1.80;;
75456;SDS011;64036;48.266;14.192;2022-10-15T14:08:48;2.50;;;1.70;;
75456;SDS011;64036;48.266;14.192;2022-10-15T14:11:15;1.70;;;1.40;;
75456;SDS011;64036;48.266;14.192;2022-10-15T14:13:46;2.40;;;1.60;;
75456;SDS011;64036;48.266;14.192;2022-10-15T14:18:47;4.00;;;1.80;;
75456;SDS011;64036;48.266;14.192;2022-10-15T14:21:18;2.70;;;1.80;;
75456;SDS011;64036;48.266;14.192;2022-10-15T14:23:46;4.90;;;2.10;;
75456;SDS011;64036;48.266;14.192;2022-10-15T14:26:13;3.60;;;2.30;;
75456;SDS011;64036;48.266;14.192;2022-10-15T14:28:42;4.10;;;2.40;;
75456;SDS011;64036;48.266;14.192;2022-10-15T14:31:07;4.10;;;2.30;;
75456;SDS011;64036;48.266;14.192;2022-10-15T14:36:23;4.40;;;2.10;;
75456;SDS011;64036;48.266;14.192;2022-10-15T14:38:51;4.60;;;2.10;;
75456;SDS011;64036;48.266;14.192;2022-10-15T14:44:05;2.60;;;1.80;;
75456;SDS011;64036;48.266;14.192;2022-10-15T14:46:40;3.10;;;2.00;;
75456;SDS011;64036;48.266;14.192;2022-10-15T14:49:17;3.50;;;2.10;;
75456;SDS011;64036;48.266;14.192;2022-10-15T14:51:52;5.10;;;2.00;;
75456;SDS011;64036;48.266;14.192;2022-10-15T14:54:25;2.30;;;1.70;;
75456;SDS011;64036;48.266;14.192;2022-10-15T14:56:56;2.00;;;1.50;;
75456;SDS011;64036;48.266;14.192;2022-10-15T14:59:26;3.70;;;2.00;;
75456;SDS011;64036;48.266;14.192;2022-10-15T15:01:59;3.60;;;1.80;;
75456;SDS011;64036;48.266;14.192;2022-10-15T15:04:49;3.10;;;1.90;;
75456;SDS011;64036;48.266;14.192;2022-10-15T15:07:40;2.70;;;1.80;;
75456;SDS011;64036;48.266;14.192;2022-10-15T15:10:07;5.10;;;2.10;;
75456;SDS011;64036;48.266;14.192;2022-10-15T15:12:37;2.90;;;2.00;;
75456;SDS011;64036;48.266;14.192;2022-10-15T15:15:13;3.80;;;2.00;;
75456;SDS011;64036;48.266;14.192;2022-10-15T15:17:43;4.30;;;2.20;;
75456;SDS011;64036;48.266;14.192;2022-10-15T15:20:12;3.40;;;1.90;;
75456;SDS011;64036;48.266;14.192;2022-10-15T15:22:39;5.40;;;2.20;;
75456;SDS011;64036;48.266;14.192;2022-10-15T15:25:13;3.00;;;2.00;;
75456;SDS011;64036;48.266;14.192;2022-10-15T15:27:40;5.20;;;2.40;;
75456;SDS011;64036;48.266;14.192;2022-10-15T15:30:12;3.30;;;1.80;;
75456;SDS011;64036;48.266;14.192;2022-10-15T15:32:39;3.30;;;2.10;;
75456;SDS011;64036;48.266;14.192;2022-10-15T15:35:35;3.90;;;2.20;;
75456;SDS011;64036;48.266;14.192;2022-10-15T15:38:15;3.20;;;2.40;;
75456;SDS011;64036;48.266;14.192;2022-10-15T15:40:41;3.40;;;2.20;;
75456;SDS011;64036;48.266;14.192;2022-10-15T15:43:08;3.10;;;1.80;;
75456;SDS011;64036;48.266;14.192;2022-10-15T15:45:34;3.00;;;2.10;;
75456;SDS011;64036;48.266;14.192;2022-10-15T15:48:00;4.60;;;2.40;;
75456;SDS011;64036;48.266;14.192;2022-10-15T15:50:28;3.80;;;2.40;;
75456;SDS011;64036;48.266;14.192;2022-10-15T15:52:53;3.20;;;2.30;;
75456;SDS011;64036;48.266;14.192;2022-10-15T15:55:19;4.60;;;2.60;;
75456;SDS011;64036;48.266;14.192;2022-10-15T15:57:45;4.50;;;2.50;;
75456;SDS011;64036;48.266;14.192;2022-10-15T16:00:12;4.90;;;2.60;;
75456;SDS011;64036;48.266;14.192;2022-10-15T16:02:38;5.50;;;2.90;;
75456;SDS011;64036;48.266;14.192;2022-10-15T16:05:06;6.30;;;2.90;;
75456;SDS011;64036;48.266;14.192;2022-10-15T16:07:33;5.60;;;2.80;;
75456;SDS011;64036;48.266;14.192;2022-10-15T16:09:58;6.00;;;3.50;;
75456;SDS011;64036;48.266;14.192;2022-10-15T16:12:24;6.30;;;3.30;;
75456;SDS011;64036;48.266;14.192;2022-10-15T16:14:50;6.40;;;3.10;;
75456;SDS011;64036;48.266;14.192;2022-10-15T16:17:15;6.70;;;4.10;;
75456;SDS011;64036;48.266;14.192;2022-10-15T16:19:41;6.20;;;3.60;;
75456;SDS011;64036;48.266;14.192;2022-10-15T16:22:07;6.00;;;3.50;;
75456;SDS011;64036;48.266;14.192;2022-10-15T16:24:32;7.60;;;4.00;;
75456;SDS011;64036;48.266;14.192;2022-10-15T16:26:58;8.00;;;3.60;;
75456;SDS011;64036;48.266;14.192;2022-10-15T16:29:24;8.10;;;3.90;;
75456;SDS011;64036;48.266;14.192;2022-10-15T16:31:50;7.80;;;4.20;;
75456;SDS011;64036;48.266;14.192;2022-10-15T16:34:15;9.00;;;5.10;;
75456;SDS011;64036;48.266;14.192;2022-10-15T16:36:41;8.40;;;4.50;;
75456;SDS011;64036;48.266;14.192;2022-10-15T16:39:06;8.60;;;5.00;;
75456;SDS011;64036;48.266;14.192;2022-10-15T16:41:32;8.50;;;4.30;;
75456;SDS011;64036;48.266;14.192;2022-10-15T16:43:58;9.30;;;5.00;;
75456;SDS011;64036;48.266;14.192;2022-10-15T16:46:23;7.40;;;4.50;;